Aviation Digital Data Service (ADDS)

Output produced by METARs form (0211 UTC 24 November 2017)
found at http://www.aviationweather.gov/adds/metars/
 
EFSI 240150Z AUTO 15014KT 110V190 9999 RA BKN007 OVC012 02/02 Q0996
EFSI 240120Z AUTO 15014KT 110V190 5000 -RA BKN006 OVC010 02/02 Q0996
EFSI 240050Z AUTO 15016KT 110V190 6000 BKN005 OVC009 02/02 Q0996
EFSI 240020Z AUTO 15018KT 3500 BR OVC005 02/02 Q0996
EFSI 232350Z AUTO 15015G26KT 120V200 8000 OVC005 02/02 Q0997
EFSI 232320Z AUTO 14017KT 5000 OVC005 02/01 Q0996
EFSI 232250Z AUTO 16017KT 130V210 8000 OVC005 02/01 Q0997
EFSI 232220Z AUTO 15019KT 130V190 9999 BKN005 OVC009 02/01 Q0997
EFSI 232150Z AUTO 15016KT 110V180 9999 -DZ FEW006 BKN008 BKN011 02/01 Q0997
EFSI 232120Z AUTO 15019KT 130V190 9999 -RA BKN007 02/01 Q0998
EFSI 232050Z AUTO 15018KT 120V190 9999 -RA BKN006 02/01 Q0998
EFSI 232020Z AUTO 15017G27KT 120V190 9999 -SHRA OVC006 02/01 Q0998
EFSI 231950Z AUTO 16017KT 130V200 9999 -DZ OVC007 02/01 Q0998
EFSI 231920Z AUTO 15017KT 130V190 9999 -SHRA FEW007 OVC009 02/01 Q0998
EFSI 231850Z AUTO 15015KT 120V190 9999 -SHRA OVC008 02/01 Q0998
EFSI 231820Z AUTO 15015KT 120V190 9999 -SHRA FEW007 OVC009 02/01 Q0998
EFSI 231750Z AUTO 15015KT 120V190 9999 -RA FEW007 OVC009 02/01 Q0998
EFSI 231720Z AUTO 15017KT 130V190 9999 -RA FEW007 BKN009 02/01 Q0998
EFSI 231650Z AUTO 15017KT 130V190 8000 -RA BKN008 OVC011 01/00 Q0998
EFSI 231620Z AUTO 15018KT 130V190 9999 -RA OVC009 01/00 Q0998
EFSI 231550Z AUTO 15018G30KT 130V190 9999 -RA BKN011 BKN015 01/M00 Q0998
EFSI 231520Z AUTO 14019G29KT 6000 -RA FEW010 BKN013 BKN018 00/M01 Q0999
EFSI 231450Z AUTO 15018KT 120V180 5000 -RA FEW011 BKN014 OVC018 00/M01 Q0999
EFSI 231420Z AUTO 15019KT 120V180 9000 -RA OVC014 00/M01 Q1000
EFSI 231350Z 14022G32KT 2000 -SG FEW012 BKN017 BKN021 00/M01 Q0999
EFSI 231320Z 14019KT 2000 -SN FEW012 BKN017 BKN021 00/M01 Q1000
EFSI 231250Z 14021KT 110V180 2000 -SN FEW012 BKN015 BKN023 M00/M02 Q1000
EFSI 231220Z AUTO 14019G33KT 110V180 6000 -SG FEW013 BKN016 OVC023 M01/M02 Q1000
EFSI 231150Z AUTO 14020G31KT 9000 -FZRASN BKN015 M01/M03 Q1001
EFSI 231120Z AUTO 14022KT 110V180 3800 -SG BR FEW014 SCT019 BKN022 BKN026 M02/M03 Q1001
EFSI 231050Z AUTO 13022KT 3700 -SN FEW013 SCT019 BKN035 M02/M03 Q1002
EFSI 231020Z AUTO 13023G33KT 0800 SN SCT005 BKN013 OVC017 M02/M04 Q1003
EFSI 230950Z AUTO 13022KT 100V160 0600 SN SCT004 BKN010 OVC015 M02/M04 Q1003
EFSI 230920Z AUTO 13022KT 0600 SN FEW006 SCT009 BKN014 OVC018 M03/M04 Q1004
EFSI 230850Z AUTO 12020KT 1200 SN FEW007 SCT009 BKN014 OVC020 M03/M04 Q1005
EFSI 230820Z AUTO 12020G30KT 1400 SN FEW007 SCT012 BKN015 OVC019 M03/M04 Q1005
EFSI 230750Z AUTO 12020G32KT 090V150 1600 SN FEW007 SCT014 BKN017 OVC022 M03/M05 Q1006
EFSI 230720Z AUTO 12019KT 090V150 2300 -SN FEW012 SCT018 BKN021 OVC026 M03/M05 Q1007
EFSI 230650Z AUTO 11018KT 090V150 2200 SN FEW006 SCT010 BKN014 OVC024 M03/M05 Q1007
EFSI 230620Z AUTO 12017KT 1600 SN BKN008 OVC018 M04/M05 Q1008
EFSI 230550Z 12017KT 1800 -SN FEW009 BKN013 BKN021 M04/M05 Q1009
EFSI 230520Z AUTO 12018KT 090V150 2000 -SN BKN009 BKN013 OVC016 M04/M05 Q1009
EFSI 230450Z AUTO 12016KT 9999 OVC009 M04/M05 Q1010
EFSI 230420Z AUTO 12017KT 9999 OVC009 M04/M05 Q1010
EFSI 230350Z AUTO 12016KT 9999 OVC009 M04/M05 Q1010
EFSI 230320Z AUTO 11018KT 9999 OVC009 M04/M05 Q1011
EFSI 230250Z AUTO 11017KT 9999 OVC009 M04/M05 Q1011
EFSI 230220Z AUTO 11017KT 9999 OVC009 M04/M06 Q1012
EFSI 230150Z AUTO 12015KT 9999 OVC009 M05/M06 Q1012
EFSI 230120Z AUTO 12013KT 9999 OVC011 M05/M06 Q1013
EFSI 230050Z AUTO 12014KT 090V150 9999 OVC011 M05/M06 Q1013
EFSI 230020Z AUTO 12012KT 9999 OVC011 M05/M06 Q1014
EFSI 222350Z AUTO 11013KT 9999 BKN011 M05/M06 Q1014
EFSI 222320Z AUTO 12015KT 9999 OVC011 M05/M06 Q1014
EFSI 222250Z AUTO 12012KT 9999 OVC010 M05/M06 Q1014
EFSI 222220Z AUTO 12013KT 9999 BKN010 M05/M06 Q1015
EFSI 222150Z AUTO 12013KT 9999 BKN010 M05/M06 Q1015
EFSI 222120Z AUTO 11011KT 9999 BKN011 M05/M06 Q1015
EFSI 222050Z AUTO 11012KT 9999 BKN011 BKN048 M05/M06 Q1015
EFSI 222020Z AUTO 11012KT 9999 BKN011 M05/M06 Q1015
EFSI 221950Z AUTO 11012KT 9999 OVC011 M04/M06 Q1015
EFSI 221920Z AUTO 12012KT 9999 OVC011 M04/M06 Q1015
EFSI 221850Z AUTO 11011KT 9999 OVC012 M04/M06 Q1015
EFSI 221820Z AUTO 11013KT 9999 OVC012 M04/M06 Q1015
EFSI 221750Z AUTO 12011KT 9999 OVC012 M04/M06 Q1015
EFSI 221720Z AUTO 11013KT 9999 OVC012 M04/M05 Q1015
EFSI 221650Z AUTO 11011KT 9999 OVC012 M04/M05 Q1015
EFSI 221620Z AUTO 11011KT 9999 BKN011 OVC015 M03/M05 Q1015
EFSI 221550Z AUTO 11009KT 070V140 9999 OVC010 M03/M04 Q1015
EFSI 221520Z AUTO 11010KT 080V140 9999 OVC010 M03/M04 Q1015
EFSI 221450Z AUTO 10008KT 9999 OVC011 M03/M04 Q1015
EFSI 221420Z AUTO 10009KT 9999 OVC011 M02/M04 Q1015